createdAt,value
2022-10-15T00:01:29.499Z,11.27
2022-10-15T00:03:56.605Z,11.25
2022-10-15T00:06:23.606Z,11.18
2022-10-15T00:08:50.564Z,11.12
2022-10-15T00:11:21.198Z,11.21
2022-10-15T00:13:48.727Z,11.26
2022-10-15T00:16:21.106Z,11.16
2022-10-15T00:18:48.792Z,11.22
2022-10-15T00:21:20.338Z,11.13
2022-10-15T00:23:48.775Z,11.12
2022-10-15T00:26:22.619Z,11.12
2022-10-15T00:28:51.307Z,11.15
2022-10-15T00:31:21.023Z,11.14
2022-10-15T00:33:53.272Z,11.10
2022-10-15T00:36:24.190Z,11.13
2022-10-15T00:38:52.239Z,11.09
2022-10-15T00:41:32.723Z,11.02
2022-10-15T00:44:21.789Z,10.95
2022-10-15T00:46:55.948Z,11.00
2022-10-15T00:49:40.408Z,11.12
2022-10-15T00:52:21.709Z,11.01
2022-10-15T00:54:57.926Z,10.94
2022-10-15T00:57:25.718Z,10.83
2022-10-15T00:59:58.357Z,10.92
2022-10-15T01:02:25.853Z,10.85
2022-10-15T01:04:53.696Z,10.87
2022-10-15T01:07:20.691Z,10.85
2022-10-15T01:09:48.023Z,10.80
2022-10-15T01:12:55.061Z,10.78
2022-10-15T01:15:31.790Z,10.76
2022-10-15T01:18:46.120Z,10.72
2022-10-15T01:21:54.716Z,10.72
2022-10-15T01:24:42.918Z,10.81
2022-10-15T01:27:29.520Z,10.72
2022-10-15T01:30:25.874Z,10.65
2022-10-15T01:33:31.862Z,10.58
2022-10-15T01:36:23.368Z,10.62
2022-10-15T01:39:18.916Z,10.76
2022-10-15T01:41:54.374Z,10.65
2022-10-15T01:44:42.648Z,10.69
2022-10-15T01:47:44.462Z,10.53
2022-10-15T01:50:13.654Z,10.61
2022-10-15T01:52:42.173Z,10.59
2022-10-15T01:55:14.765Z,10.60
2022-10-15T01:57:45.012Z,10.54
2022-10-15T02:00:12.819Z,10.56
2022-10-15T02:02:41.999Z,10.74
2022-10-15T02:05:20.466Z,10.56
2022-10-15T02:08:13.344Z,10.53
2022-10-15T02:11:20.003Z,10.43
2022-10-15T02:14:10.621Z,10.44
2022-10-15T02:17:08.357Z,10.44
2022-10-15T02:19:52.110Z,10.44
2022-10-15T02:22:32.272Z,10.47
2022-10-15T02:25:06.942Z,10.42
2022-10-15T02:27:36.024Z,10.40
2022-10-15T02:30:08.224Z,10.34
2022-10-15T02:32:39.071Z,10.38
2022-10-15T02:35:10.549Z,10.40
2022-10-15T02:37:42.900Z,10.37
2022-10-15T02:40:10.854Z,10.24
2022-10-15T02:42:37.975Z,10.20
2022-10-15T02:45:05.599Z,10.17
2022-10-15T02:47:32.779Z,10.25
2022-10-15T02:49:59.783Z,10.20
2022-10-15T02:52:26.812Z,10.15
2022-10-15T02:54:53.808Z,10.13
2022-10-15T02:57:20.901Z,10.14
2022-10-15T02:59:48.092Z,10.23
2022-10-15T03:02:16.964Z,10.17
2022-10-15T03:04:46.510Z,10.16
2022-10-15T03:07:14.257Z,10.24
2022-10-15T03:09:41.176Z,10.27
2022-10-15T03:12:08.614Z,10.21
2022-10-15T03:14:35.543Z,10.38
2022-10-15T03:17:02.483Z,10.19
2022-10-15T03:19:29.482Z,10.32
2022-10-15T03:21:56.399Z,10.32
2022-10-15T03:24:23.302Z,10.26
2022-10-15T03:26:50.269Z,10.14
2022-10-15T03:29:17.151Z,10.23
2022-10-15T03:31:44.079Z,10.21
2022-10-15T03:34:11.046Z,10.22
2022-10-15T03:36:37.979Z,10.16
2022-10-15T03:39:05.925Z,10.15
2022-10-15T03:41:32.922Z,10.32
2022-10-15T03:44:05.726Z,10.40
2022-10-15T03:46:33.553Z,10.51
2022-10-15T03:49:01.550Z,10.38
2022-10-15T03:51:31.426Z,10.27
2022-10-15T03:53:58.810Z,10.22
2022-10-15T03:56:25.803Z,10.17
2022-10-15T03:58:52.735Z,10.05
2022-10-15T04:01:19.852Z,10.09
2022-10-15T04:03:47.042Z,10.19
2022-10-15T04:06:13.986Z,10.25
2022-10-15T04:08:40.976Z,10.29
2022-10-15T04:11:07.947Z,10.25
2022-10-15T04:13:34.911Z,10.34
2022-10-15T04:16:05.631Z,10.31
2022-10-15T04:18:33.101Z,10.28
2022-10-15T04:21:01.420Z,10.31
2022-10-15T04:23:28.539Z,10.42
2022-10-15T04:26:00.374Z,10.47
2022-10-15T04:28:28.609Z,10.43
2022-10-15T04:30:59.668Z,10.50
2022-10-15T04:33:27.694Z,10.67
2022-10-15T04:36:09.099Z,10.54
2022-10-15T04:38:36.129Z,10.56
2022-10-15T04:41:10.539Z,10.53
2022-10-15T04:43:38.599Z,10.54
2022-10-15T04:46:08.823Z,10.52
2022-10-15T04:48:40.493Z,10.62
2022-10-15T04:51:16.968Z,10.67
2022-10-15T04:53:44.368Z,10.62
2022-10-15T04:56:17.842Z,10.58
2022-10-15T04:58:47.701Z,10.68
2022-10-15T05:01:21.139Z,10.96
2022-10-15T05:03:49.195Z,10.85
2022-10-15T05:06:21.977Z,10.71
2022-10-15T05:08:49.938Z,10.69
2022-10-15T05:11:26.402Z,11.06
2022-10-15T05:13:55.906Z,11.11
2022-10-15T05:16:29.220Z,11.19
2022-10-15T05:19:00.363Z,11.21
2022-10-15T05:21:27.981Z,11.09
2022-10-15T05:23:55.073Z,11.63
2022-10-15T05:26:25.493Z,11.80
2022-10-15T05:28:53.230Z,11.80
2022-10-15T05:31:22.747Z,11.88
2022-10-15T05:33:52.051Z,12.14
2022-10-15T05:36:24.849Z,12.02
2022-10-15T05:38:58.073Z,11.93
2022-10-15T05:41:26.556Z,12.04
2022-10-15T05:43:56.127Z,12.12
2022-10-15T05:46:23.579Z,12.02
2022-10-15T05:48:56.225Z,11.93
2022-10-15T05:51:25.829Z,11.90
2022-10-15T05:53:57.369Z,12.11
2022-10-15T05:56:26.036Z,12.37
2022-10-15T05:58:52.979Z,12.40
2022-10-15T06:01:20.188Z,12.36
2022-10-15T06:03:47.282Z,12.45
2022-10-15T06:06:26.550Z,12.45
2022-10-15T06:08:55.288Z,12.40
2022-10-15T06:11:22.935Z,12.53
2022-10-15T06:13:49.962Z,12.67
2022-10-15T06:16:21.121Z,12.77
2022-10-15T06:18:53.573Z,12.61
2022-10-15T06:21:20.998Z,13.05
2022-10-15T06:23:47.961Z,12.98
2022-10-15T06:26:14.875Z,13.55
2022-10-15T06:28:41.982Z,13.43
2022-10-15T06:31:09.337Z,13.49
2022-10-15T06:33:36.899Z,13.91
2022-10-15T06:36:09.712Z,14.33
2022-10-15T06:38:37.552Z,14.19
2022-10-15T06:41:06.585Z,14.18
2022-10-15T06:43:35.222Z,14.48
2022-10-15T06:46:06.384Z,14.59
2022-10-15T06:48:33.835Z,14.75
2022-10-15T06:51:02.235Z,16.93
2022-10-15T06:53:30.273Z,18.29
2022-10-15T06:56:03.032Z,19.30
2022-10-15T06:58:30.386Z,20.05
2022-10-15T07:01:06.045Z,20.58
2022-10-15T07:03:33.470Z,21.08
2022-10-15T07:06:06.515Z,21.62
2022-10-15T07:08:34.070Z,22.05
2022-10-15T07:11:06.278Z,22.01
2022-10-15T07:13:33.467Z,22.16
2022-10-15T07:16:07.932Z,22.74
2022-10-15T07:18:35.784Z,22.45
2022-10-15T07:21:05.137Z,22.76
2022-10-15T07:23:32.576Z,22.89
2022-10-15T07:26:01.195Z,22.63
2022-10-15T07:28:28.470Z,22.97
2022-10-15T07:30:59.639Z,22.66
2022-10-15T07:33:26.613Z,21.05
2022-10-15T07:35:53.554Z,20.36
2022-10-15T07:38:20.548Z,20.26
2022-10-15T07:40:47.565Z,20.25
2022-10-15T07:43:16.025Z,20.02
2022-10-15T07:45:48.389Z,18.90
2022-10-15T07:48:15.429Z,18.72
2022-10-15T07:50:42.447Z,18.13
2022-10-15T07:53:09.719Z,17.52
2022-10-15T07:55:36.655Z,17.35
2022-10-15T07:58:05.813Z,17.43
2022-10-15T08:03:05.766Z,16.97
2022-10-15T08:05:33.745Z,17.55
2022-10-15T08:08:00.850Z,18.17
2022-10-15T08:10:28.382Z,18.99
2022-10-15T08:12:55.302Z,19.03
2022-10-15T08:15:22.185Z,19.43
2022-10-15T08:17:49.137Z,19.54
2022-10-15T08:20:16.106Z,19.67
2022-10-15T08:22:43.027Z,19.60
2022-10-15T08:25:10.062Z,20.30
2022-10-15T08:27:37.702Z,20.06
2022-10-15T08:30:05.294Z,20.33
2022-10-15T08:32:32.265Z,20.42
2022-10-15T08:34:59.171Z,21.19
2022-10-15T08:37:26.115Z,21.02
2022-10-15T08:39:53.131Z,20.92
2022-10-15T08:42:37.415Z,20.75
2022-10-15T08:45:19.397Z,21.17
2022-10-15T08:47:57.077Z,21.09
2022-10-15T08:51:05.415Z,21.18
2022-10-15T08:53:54.072Z,21.11
2022-10-15T08:56:45.752Z,21.49
2022-10-15T08:59:39.755Z,21.72
2022-10-15T09:02:26.810Z,21.03
2022-10-15T09:05:03.448Z,20.69
2022-10-15T09:08:11.488Z,21.77
2022-10-15T09:11:00.436Z,21.11
2022-10-15T09:13:42.354Z,21.10
2022-10-15T09:16:22.492Z,21.38
2022-10-15T09:18:53.300Z,21.80
2022-10-15T09:21:27.984Z,20.62
2022-10-15T09:24:18.443Z,20.68
2022-10-15T09:27:28.150Z,20.14
2022-10-15T09:30:31.137Z,20.72
2022-10-15T09:33:12.833Z,20.51
2022-10-15T09:35:53.138Z,19.96
2022-10-15T09:38:45.523Z,19.64
2022-10-15T09:41:18.259Z,19.63
2022-10-15T09:43:50.389Z,19.27
2022-10-15T09:46:17.648Z,19.31
2022-10-15T09:48:53.529Z,18.71
2022-10-15T09:52:03.220Z,18.80
2022-10-15T09:55:08.885Z,18.82
2022-10-15T09:57:37.744Z,18.55
2022-10-15T10:00:13.698Z,18.38
2022-10-15T10:02:41.091Z,18.39
2022-10-15T10:05:33.412Z,18.35
2022-10-15T10:08:24.767Z,18.36
2022-10-15T10:11:01.596Z,18.90
2022-10-15T10:13:46.234Z,18.73
2022-10-15T10:16:15.828Z,18.68
2022-10-15T10:18:50.474Z,18.43
2022-10-15T10:21:31.322Z,19.09
2022-10-15T10:24:35.852Z,19.17
2022-10-15T10:27:06.388Z,19.51
2022-10-15T10:29:40.599Z,19.85
2022-10-15T10:32:22.469Z,19.90
2022-10-15T10:34:52.802Z,20.04
2022-10-15T10:37:20.816Z,20.46
2022-10-15T10:39:54.827Z,20.40
2022-10-15T10:42:32.752Z,20.74
2022-10-15T10:45:22.784Z,20.72
2022-10-15T10:47:50.217Z,20.52
2022-10-15T10:50:34.606Z,20.77
2022-10-15T10:53:24.214Z,20.86
2022-10-15T10:55:55.259Z,20.78
2022-10-15T10:58:27.092Z,20.87
2022-10-15T11:00:55.758Z,21.04
2022-10-15T11:03:38.415Z,20.70
2022-10-15T11:06:23.563Z,20.77
2022-10-15T11:09:05.951Z,20.98
2022-10-15T11:12:04.404Z,20.98
2022-10-15T11:15:01.652Z,20.98
2022-10-15T11:17:40.854Z,21.15
2022-10-15T11:20:36.240Z,20.98
2022-10-15T11:24:09.356Z,21.27
2022-10-15T11:27:11.379Z,21.10
2022-10-15T11:29:41.606Z,21.36
2022-10-15T11:32:54.614Z,21.65
2022-10-15T11:35:59.292Z,20.84
2022-10-15T11:38:46.077Z,20.34
2022-10-15T11:42:09.118Z,20.27
2022-10-15T11:45:26.608Z,19.97
2022-10-15T11:47:53.426Z,19.62
2022-10-15T11:50:40.021Z,19.75
2022-10-15T11:53:37.001Z,19.58
2022-10-15T11:56:38.751Z,19.72
2022-10-15T11:59:40.797Z,19.66
2022-10-15T12:02:22.280Z,19.66
2022-10-15T12:04:59.058Z,19.56
2022-10-15T12:07:42.804Z,19.35
2022-10-15T12:10:12.716Z,19.52
2022-10-15T12:13:16.876Z,19.37
2022-10-15T12:16:16.335Z,19.53
2022-10-15T12:19:04.932Z,19.34
2022-10-15T12:21:56.473Z,19.30
2022-10-15T12:24:38.364Z,19.26
2022-10-15T12:27:20.016Z,19.28
2022-10-15T12:30:13.366Z,19.35
2022-10-15T12:32:44.104Z,19.15
2022-10-15T12:35:23.901Z,19.20
2022-10-15T12:37:51.480Z,19.22
2022-10-15T12:40:21.437Z,19.06
2022-10-15T12:43:01.595Z,19.06
2022-10-15T12:46:00.152Z,19.01
2022-10-15T12:48:36.449Z,19.01
2022-10-15T12:51:21.850Z,18.98
2022-10-15T12:53:51.276Z,18.89
2022-10-15T12:56:18.093Z,18.88
2022-10-15T12:58:53.673Z,18.72
2022-10-15T13:01:20.662Z,18.91
2022-10-15T13:03:50.660Z,18.98
2022-10-15T13:06:20.608Z,18.76
2022-10-15T13:09:12.305Z,18.67
2022-10-15T13:14:42.721Z,18.52
2022-10-15T13:17:21.730Z,18.92
2022-10-15T13:20:08.058Z,18.75
2022-10-15T13:22:36.844Z,18.63
2022-10-15T13:25:04.260Z,18.73
2022-10-15T13:27:35.652Z,18.45
2022-10-15T13:30:15.828Z,18.69
2022-10-15T13:32:52.480Z,18.68
2022-10-15T13:35:29.119Z,18.61
2022-10-15T13:37:58.138Z,18.64
2022-10-15T13:40:31.449Z,18.59
2022-10-15T13:43:15.719Z,18.45
2022-10-15T13:45:57.545Z,18.60
2022-10-15T13:48:28.544Z,18.58
2022-10-15T13:50:59.906Z,18.54
2022-10-15T13:53:37.593Z,18.69
2022-10-15T13:56:25.461Z,18.63
2022-10-15T13:58:53.760Z,18.59
2022-10-15T14:01:24.260Z,18.64
2022-10-15T14:03:55.307Z,18.44
2022-10-15T14:06:31.329Z,18.67
2022-10-15T14:09:19.161Z,18.50
2022-10-15T14:11:46.478Z,18.53
2022-10-15T14:14:46.753Z,18.33
2022-10-15T14:17:26.336Z,18.39
2022-10-15T14:20:26.917Z,18.24
2022-10-15T14:22:49.896Z,18.39
2022-10-15T14:25:24.965Z,18.54
2022-10-15T14:27:52.733Z,18.18
2022-10-15T14:30:33.108Z,18.27
2022-10-15T14:33:00.206Z,18.20
2022-10-15T14:35:35.823Z,18.09
2022-10-15T14:38:09.720Z,18.13
2022-10-15T14:40:37.114Z,18.32
2022-10-15T14:43:19.692Z,18.18
2022-10-15T14:45:52.446Z,18.11
2022-10-15T14:48:43.637Z,18.03
2022-10-15T14:51:27.025Z,18.09
2022-10-15T14:53:54.450Z,18.02
2022-10-15T14:56:32.058Z,17.90
2022-10-15T14:59:01.163Z,18.10
2022-10-15T15:01:30.427Z,18.02
2022-10-15T15:03:57.394Z,17.92
2022-10-15T15:06:24.402Z,17.84
2022-10-15T15:08:51.480Z,17.77
2022-10-15T15:11:22.874Z,17.85
2022-10-15T15:13:51.539Z,17.63
2022-10-15T15:16:19.056Z,17.72
2022-10-15T15:18:48.339Z,17.78
2022-10-15T15:21:21.648Z,17.78
2022-10-15T15:23:49.138Z,17.64
2022-10-15T15:26:16.086Z,17.70
2022-10-15T15:28:43.110Z,17.72
2022-10-15T15:31:18.882Z,17.62
2022-10-15T15:33:46.072Z,17.47
2022-10-15T15:36:22.526Z,17.64
2022-10-15T15:38:50.825Z,17.57
2022-10-15T15:41:20.848Z,17.46
2022-10-15T15:43:48.451Z,17.45
2022-10-15T15:46:16.179Z,17.51
2022-10-15T15:48:43.450Z,17.46
2022-10-15T15:51:28.972Z,17.33
2022-10-15T15:53:57.067Z,17.49
2022-10-15T15:56:24.620Z,17.40
2022-10-15T15:58:51.978Z,17.38
2022-10-15T16:01:20.305Z,17.44
2022-10-15T16:03:47.505Z,17.46
2022-10-15T16:06:14.536Z,17.49
2022-10-15T16:08:41.590Z,17.50
2022-10-15T16:11:08.575Z,17.47
2022-10-15T16:13:35.576Z,17.42
2022-10-15T16:16:02.870Z,17.35
2022-10-15T16:18:29.896Z,17.32
2022-10-15T16:20:56.873Z,17.43
2022-10-15T16:23:23.852Z,17.35
2022-10-15T16:25:50.780Z,17.35
2022-10-15T16:28:17.763Z,17.34
2022-10-15T16:30:44.699Z,17.47
2022-10-15T16:33:11.733Z,17.57
2022-10-15T16:35:38.710Z,17.45
2022-10-15T16:38:05.739Z,17.50
2022-10-15T16:40:33.627Z,17.46
2022-10-15T16:43:00.930Z,17.61
2022-10-15T16:45:27.874Z,17.52
2022-10-15T16:47:54.827Z,17.47
2022-10-15T16:50:21.870Z,17.49
2022-10-15T16:52:48.903Z,17.43
2022-10-15T16:55:16.866Z,17.33
2022-10-15T16:57:44.469Z,17.38
2022-10-15T17:00:12.152Z,17.35
2022-10-15T17:02:39.258Z,17.15
2022-10-15T17:05:06.889Z,17.21
2022-10-15T17:07:33.913Z,17.01
2022-10-15T17:10:01.074Z,16.87
2022-10-15T17:12:28.398Z,16.70
2022-10-15T17:14:55.537Z,16.81
2022-10-15T17:17:22.641Z,17.01
2022-10-15T17:19:49.615Z,17.00
2022-10-15T17:22:16.570Z,16.79
2022-10-15T17:24:43.903Z,16.71
2022-10-15T17:27:10.841Z,16.73
2022-10-15T17:29:38.262Z,16.59
2022-10-15T17:32:05.330Z,16.52
2022-10-15T17:34:32.417Z,16.59
2022-10-15T17:36:59.423Z,16.65
2022-10-15T17:39:26.447Z,16.48
2022-10-15T17:41:53.489Z,16.37
2022-10-15T17:44:20.666Z,16.40
2022-10-15T17:49:19.536Z,16.49
2022-10-15T17:51:47.288Z,16.41
2022-10-15T17:54:14.461Z,16.53
2022-10-15T17:56:41.644Z,16.46
2022-10-15T17:59:11.711Z,16.50
2022-10-15T18:01:59.249Z,16.51
2022-10-15T18:04:28.817Z,16.43
2022-10-15T18:06:55.897Z,16.43
2022-10-15T18:09:22.852Z,16.32
2022-10-15T18:11:49.845Z,16.45
2022-10-15T18:14:17.936Z,16.35
2022-10-15T18:16:45.888Z,16.43
2022-10-15T18:19:13.013Z,16.47
2022-10-15T18:21:39.961Z,16.48
2022-10-15T18:24:06.990Z,16.50
2022-10-15T18:26:33.937Z,16.53
2022-10-15T18:29:00.863Z,16.33
2022-10-15T18:31:28.232Z,16.50
2022-10-15T18:33:56.170Z,16.36
2022-10-15T18:36:25.930Z,16.37
2022-10-15T18:38:53.440Z,16.45
2022-10-15T18:41:28.179Z,16.44
2022-10-15T18:44:14.764Z,16.35
2022-10-15T18:46:43.977Z,16.26
2022-10-15T18:49:13.130Z,16.40
2022-10-15T18:51:40.197Z,16.36
2022-10-15T18:54:08.716Z,16.42
2022-10-15T18:56:35.800Z,16.37
2022-10-15T18:59:02.720Z,16.46
2022-10-15T19:01:41.951Z,16.26
2022-10-15T19:04:15.357Z,16.24
2022-10-15T19:06:46.526Z,16.16
2022-10-15T19:09:23.095Z,16.28
2022-10-15T19:11:54.600Z,16.19
2022-10-15T19:14:23.610Z,16.24
2022-10-15T19:16:51.397Z,16.28
2022-10-15T19:19:21.132Z,16.15
2022-10-15T19:21:50.073Z,16.15
2022-10-15T19:24:19.179Z,16.21
2022-10-15T19:26:47.188Z,16.03
2022-10-15T19:29:14.294Z,16.18
2022-10-15T19:31:44.315Z,16.09
2022-10-15T19:34:12.306Z,16.05
2022-10-15T19:36:43.521Z,15.91
2022-10-15T19:39:17.692Z,15.94
2022-10-15T19:41:45.857Z,15.83
2022-10-15T19:44:16.864Z,15.92
2022-10-15T19:46:43.913Z,16.02
2022-10-15T19:49:13.209Z,15.98
2022-10-15T19:51:40.619Z,16.08
2022-10-15T19:54:07.632Z,15.84
2022-10-15T19:56:34.815Z,15.78
2022-10-15T19:59:04.308Z,15.99
2022-10-15T20:01:32.118Z,15.94
2022-10-15T20:04:04.874Z,15.78
2022-10-15T20:06:36.017Z,15.63
2022-10-15T20:09:03.384Z,15.53
2022-10-15T20:11:30.444Z,15.67
2022-10-15T20:13:59.737Z,15.54
2022-10-15T20:16:27.611Z,15.70
2022-10-15T20:18:58.700Z,15.65
2022-10-15T20:21:25.607Z,15.45
2022-10-15T20:23:52.583Z,15.45
2022-10-15T20:26:19.492Z,15.42
2022-10-15T20:28:46.859Z,15.48
2022-10-15T20:31:24.999Z,15.39
2022-10-15T20:33:51.921Z,15.33
2022-10-15T20:36:22.781Z,15.51
2022-10-15T20:38:52.038Z,15.56
2022-10-15T20:41:19.786Z,15.40
2022-10-15T20:43:51.266Z,15.26
2022-10-15T20:46:37.109Z,15.46
2022-10-15T20:49:23.036Z,15.48
2022-10-15T20:51:50.852Z,15.58
2022-10-15T20:54:19.125Z,15.35
2022-10-15T20:56:46.368Z,15.20
2022-10-15T20:59:13.320Z,15.45
2022-10-15T21:01:40.433Z,15.28
2022-10-15T21:04:07.436Z,15.37
2022-10-15T21:06:34.374Z,15.34
2022-10-15T21:09:01.471Z,15.42
2022-10-15T21:11:28.540Z,15.21
2022-10-15T21:13:55.533Z,15.32
2022-10-15T21:16:25.893Z,15.15
2022-10-15T21:18:55.305Z,15.40
2022-10-15T21:21:22.214Z,15.28
2022-10-15T21:23:49.226Z,15.35
2022-10-15T21:26:18.013Z,15.49
2022-10-15T21:28:47.762Z,15.67
2022-10-15T21:31:17.807Z,15.41
2022-10-15T21:33:46.068Z,15.48
2022-10-15T21:36:22.384Z,15.26
2022-10-15T21:39:01.005Z,15.23
2022-10-15T21:41:31.408Z,15.34
2022-10-15T21:44:00.174Z,15.16
2022-10-15T21:46:28.111Z,15.40
2022-10-15T21:48:55.211Z,15.23
2022-10-15T21:51:26.150Z,15.28
2022-10-15T21:53:55.341Z,15.12
2022-10-15T21:56:22.960Z,15.25
2022-10-15T21:58:50.099Z,15.28
2022-10-15T22:01:21.871Z,15.21
2022-10-15T22:03:51.261Z,15.52
2022-10-15T22:06:19.907Z,15.29
2022-10-15T22:08:47.850Z,15.40
2022-10-15T22:11:22.305Z,15.11
2022-10-15T22:13:56.435Z,15.31
2022-10-15T22:16:25.671Z,14.92
2022-10-15T22:18:53.279Z,15.08
2022-10-15T22:21:36.522Z,15.17
2022-10-15T22:24:12.107Z,14.96
2022-10-15T22:26:43.039Z,15.21
2022-10-15T22:29:31.707Z,14.99
2022-10-15T22:32:01.593Z,14.94
2022-10-15T22:34:28.603Z,15.35
2022-10-15T22:36:55.650Z,15.22
2022-10-15T22:39:22.588Z,14.96
2022-10-15T22:41:49.620Z,15.26
2022-10-15T22:44:20.101Z,15.04
2022-10-15T22:46:49.400Z,15.03
2022-10-15T22:49:21.535Z,15.03
2022-10-15T22:51:49.841Z,15.09
2022-10-15T22:54:19.252Z,15.01
2022-10-15T22:56:47.395Z,15.02
2022-10-15T22:59:15.473Z,14.99
2022-10-15T23:01:43.026Z,15.00
2022-10-15T23:04:13.934Z,15.24
2022-10-15T23:06:41.377Z,15.10
2022-10-15T23:09:10.894Z,14.99
2022-10-15T23:11:40.215Z,15.03
2022-10-15T23:14:14.530Z,14.92
2022-10-15T23:16:45.291Z,14.96
2022-10-15T23:19:20.707Z,15.01
2022-10-15T23:21:55.457Z,15.07
2022-10-15T23:24:26.110Z,15.01
2022-10-15T23:26:53.553Z,15.01
2022-10-15T23:29:24.031Z,14.97
2022-10-15T23:31:52.291Z,14.93
2022-10-15T23:34:23.055Z,14.86
2022-10-15T23:36:50.507Z,14.86
2022-10-15T23:39:21.829Z,14.92
2022-10-15T23:41:49.156Z,14.88
2022-10-15T23:44:16.132Z,14.87
2022-10-15T23:46:43.592Z,15.01
2022-10-15T23:49:10.926Z,15.01
2022-10-15T23:51:38.491Z,15.48
2022-10-15T23:54:16.321Z,14.97
2022-10-15T23:56:44.195Z,15.07
2022-10-15T23:59:11.934Z,14.93
